Time;durP1;ratioP1;P1;durP2;ratioP2;P2;SDS_P1;SDS_P2;PMS_P1;PMS_P2;Temp;Humidity;BMP_temperature;BMP_pressure;BME280_temperature;BME280_humidity;BME280_pressure;Samples;Min_cycle;Max_cycle;Signal;HPM_P1;HPM_P2
2021/07/22 00:04:15;;;;;;;6.88;4.15;;;21.40;67.00;;;;;;21079811;28;20136;-72
2021/07/22 00:14:15;;;;;;;5.45;3.67;;;21.30;67.00;;;;;;21085445;28;20027;-72
2021/07/22 00:24:16;;;;;;;6.20;3.88;;;21.30;67.10;;;;;;21085097;28;20044;-72
2021/07/22 00:34:16;;;;;;;6.40;4.40;;;21.30;67.00;;;;;;21065922;28;20028;-72
2021/07/22 00:44:17;;;;;;;6.40;4.40;;;21.30;67.00;;;;;;21065574;28;20047;-72
2021/07/22 00:54:19;;;;;;;5.57;4.13;;;21.30;67.00;;;;;;21064397;28;20044;-72
2021/07/22 01:04:20;;;;;;;6.80;4.78;;;21.30;67.00;;;;;;21065056;28;20040;-72
2021/07/22 01:14:22;;;;;;;6.90;4.25;;;21.30;67.00;;;;;;21079374;28;20031;-72
2021/07/22 01:24:24;;;;;;;5.85;3.63;;;21.30;67.00;;;;;;21062358;28;20035;-72
2021/07/22 01:34:51;;;;;;;5.32;3.63;;;21.30;67.00;;;;;;21073281;28;20040;-72
2021/07/22 01:44:55;;;;;;;6.68;4.60;;;21.30;67.00;;;;;;21061081;28;20126;-72
2021/07/22 01:54:57;;;;;;;5.88;3.97;;;21.30;67.00;;;;;;21060054;28;20386;-71
2021/07/22 02:04:58;;;;;;;10.13;4.80;;;21.30;67.10;;;;;;21058758;28;20104;-72
2021/07/22 02:14:59;;;;;;;6.88;4.72;;;21.30;67.10;;;;;;21058892;28;20043;-74
2021/07/22 02:25:00;;;;;;;7.93;5.10;;;21.20;67.00;;;;;;21056582;28;20032;-71
2021/07/22 02:35:12;;;;;;;6.22;4.45;;;21.20;67.10;;;;;;21042973;28;20489;-72
2021/07/22 02:45:42;;;;;;;6.95;4.07;;;21.20;67.20;;;;;;21060226;28;20147;-74
2021/07/22 02:55:44;;;;;;;6.80;4.20;;;21.20;67.10;;;;;;21072160;28;20447;-74
2021/07/22 03:05:45;;;;;;;7.72;5.15;;;21.20;67.20;;;;;;21054806;28;20089;-72
2021/07/22 03:15:46;;;;;;;6.53;4.55;;;21.20;67.20;;;;;;21054098;28;20028;-74
2021/07/22 03:26:07;;;;;;;6.32;4.38;;;21.20;67.30;;;;;;21070580;28;20055;-72
2021/07/22 03:36:14;;;;;;;7.75;4.70;;;21.20;67.20;;;;;;21062097;28;20542;-72
2021/07/22 03:46:18;;;;;;;6.18;4.50;;;21.20;67.30;;;;;;21070219;28;20044;-72
2021/07/22 03:56:19;;;;;;;5.78;4.15;;;21.20;67.20;;;;;;21069436;28;20040;-72
2021/07/22 04:06:39;;;;;;;7.73;4.60;;;21.20;67.20;;;;;;21070416;28;20039;-73
2021/07/22 04:16:46;;;;;;;6.55;4.40;;;21.20;67.20;;;;;;21068784;28;20035;-72
2021/07/22 04:26:56;;;;;;;7.57;4.15;;;21.20;67.20;;;;;;21069385;28;20439;-78
2021/07/22 04:37:16;;;;;;;5.88;4.18;;;21.20;67.20;;;;;;21054510;28;20042;-73
2021/07/22 04:47:40;;;;;;;5.45;3.88;;;21.20;67.20;;;;;;21034905;28;20036;-71
2021/07/22 04:58:01;;;;;;;6.15;4.35;;;21.20;67.20;;;;;;21065661;28;20035;-76
2021/07/22 05:08:04;;;;;;;5.97;4.22;;;21.20;67.20;;;;;;21063775;28;20028;-76
2021/07/22 05:18:17;;;;;;;6.28;4.28;;;21.20;67.20;;;;;;21079584;28;20152;-76
2021/07/22 05:28:37;;;;;;;5.30;3.70;;;21.20;67.20;;;;;;21080347;28;20051;-77
2021/07/22 05:38:44;;;;;;;4.82;3.80;;;21.20;67.20;;;;;;21061642;28;20066;-76
2021/07/22 05:48:48;;;;;;;5.45;3.80;;;21.20;67.20;;;;;;21060271;28;20028;-78
2021/07/22 05:58:50;;;;;;;5.68;3.78;;;21.20;67.10;;;;;;21049451;28;20096;-75
2021/07/22 06:08:51;;;;;;;6.53;4.60;;;21.20;67.10;;;;;;21057752;28;20386;-76
2021/07/22 06:18:52;;;;;;;5.82;3.70;;;21.20;67.10;;;;;;21056062;28;20064;-77
2021/07/22 06:28:52;;;;;;;6.65;4.40;;;21.20;67.10;;;;;;21053049;28;20667;-76
2021/07/22 06:38:53;;;;;;;6.80;4.28;;;21.20;67.10;;;;;;21027140;28;20044;-74
2021/07/22 06:48:55;;;;;;;6.13;4.22;;;21.20;67.10;;;;;;21010755;28;20055;-74
2021/07/22 06:58:55;;;;;;;7.47;4.38;;;21.20;67.10;;;;;;21034182;28;20462;-74
2021/07/22 07:08:56;;;;;;;4.90;3.35;;;21.20;67.00;;;;;;21052556;28;20059;-77
2021/07/22 07:18:56;;;;;;;4.65;3.38;;;21.20;67.00;;;;;;21103851;28;20130;-78
2021/07/22 07:28:57;;;;;;;5.82;3.88;;;21.30;66.90;;;;;;21081663;28;20086;-74
2021/07/22 07:38:57;;;;;;;4.32;3.28;;;21.30;66.90;;;;;;21097518;28;20048;-81
2021/07/22 07:48:58;;;;;;;7.20;4.13;;;21.30;66.80;;;;;;21028663;28;20531;-76
2021/07/22 07:58:59;;;;;;;5.40;3.70;;;21.30;66.80;;;;;;21042011;28;20482;-73
2021/07/22 08:08:59;;;;;;;5.45;4.05;;;21.30;66.80;;;;;;21049111;28;20032;-78
2021/07/22 08:19:00;;;;;;;6.53;3.97;;;21.30;66.80;;;;;;21056182;28;20027;-73
2021/07/22 08:29:00;;;;;;;5.22;4.20;;;21.30;66.80;;;;;;21092343;28;20197;-74
2021/07/22 08:39:01;;;;;;;5.82;4.32;;;21.30;66.80;;;;;;21089747;28;20063;-73
2021/07/22 08:49:02;;;;;;;5.00;3.53;;;21.30;66.80;;;;;;21021276;28;20425;-74
2021/07/22 08:59:02;;;;;;;5.30;4.00;;;21.40;66.80;;;;;;21063782;28;20036;-74
2021/07/22 09:09:13;;;;;;;5.43;3.77;;;21.40;66.90;;;;;;21080052;28;20042;-74
2021/07/22 09:19:32;;;;;;;7.40;3.95;;;21.40;66.70;;;;;;21001416;28;20043;-74
2021/07/22 09:29:33;;;;;;;4.78;3.42;;;21.40;66.80;;;;;;21077826;28;20379;-75
2021/07/22 09:39:34;;;;;;;4.53;3.60;;;21.40;66.70;;;;;;21452920;22;20124;-74
2021/07/22 09:49:41;;;;;;;6.65;4.10;;;21.50;66.70;;;;;;20951348;28;20036;-74
2021/07/22 09:59:43;;;;;;;6.28;4.35;;;21.50;66.70;;;;;;20984782;28;20189;-73
2021/07/22 10:09:44;;;;;;;6.85;5.20;;;21.50;66.70;;;;;;21040180;28;20039;-74
2021/07/22 10:19:44;;;;;;;8.80;5.32;;;21.50;66.70;;;;;;20967119;28;20040;-76
2021/07/22 10:29:45;;;;;;;6.70;4.22;;;21.50;66.80;;;;;;21007344;28;20066;-75
2021/07/22 10:40:08;;;;;;;7.10;4.40;;;21.50;66.80;;;;;;21018652;28;20497;-74
2021/07/22 10:50:08;;;;;;;6.53;4.55;;;21.50;66.80;;;;;;20929437;28;20049;-74
2021/07/22 11:00:10;;;;;;;8.47;4.60;;;21.40;66.80;;;;;;20947490;28;20631;-74
2021/07/22 11:10:10;;;;;;;9.55;4.88;;;21.40;67.00;;;;;;20943376;28;20279;-73
2021/07/22 11:20:20;;;;;;;8.13;4.97;;;21.40;66.70;;;;;;20920854;28;20052;-75
2021/07/22 11:30:21;;;;;;;5.95;4.10;;;21.50;66.70;;;;;;20986714;28;20035;-73
2021/07/22 11:40:22;;;;;;;6.85;4.82;;;21.50;66.70;;;;;;20951683;28;20044;-73
2021/07/22 11:50:28;;;;;;;5.47;4.30;;;21.50;66.60;;;;;;20960211;28;20033;-73
2021/07/22 12:00:29;;;;;;;6.90;4.78;;;21.50;66.60;;;;;;20941656;28;20059;-73
2021/07/22 12:10:32;;;;;;;7.72;4.75;;;21.60;66.50;;;;;;20960811;28;20028;-74
2021/07/22 12:20:33;;;;;;;6.97;4.78;;;21.60;66.50;;;;;;20973900;28;20097;-72
2021/07/22 12:30:34;;;;;;;6.95;5.40;;;21.60;66.50;;;;;;20959254;28;20431;-73
2021/07/22 12:40:37;;;;;;;7.35;5.43;;;21.60;66.40;;;;;;20932251;28;20060;-74
2021/07/22 12:50:40;;;;;;;7.55;5.00;;;21.70;66.50;;;;;;21033146;28;20101;-75
2021/07/22 13:00:42;;;;;;;7.28;4.85;;;21.70;66.40;;;;;;20960589;28;20044;-76
2021/07/22 13:10:43;;;;;;;6.30;4.70;;;21.70;66.40;;;;;;20959069;28;20047;-75
2021/07/22 13:20:43;;;;;;;7.22;5.25;;;21.70;66.40;;;;;;20960187;28;20044;-77
2021/07/22 13:30:44;;;;;;;7.88;5.32;;;21.70;66.30;;;;;;20916183;28;20484;-75
2021/07/22 13:40:45;;;;;;;7.45;4.75;;;21.80;66.30;;;;;;21007700;28;20039;-78
2021/07/22 13:50:46;;;;;;;7.65;5.43;;;21.80;66.30;;;;;;20972464;28;20207;-79
2021/07/22 14:00:47;;;;;;;24.20;6.55;;;21.80;66.20;;;;;;20961281;28;20139;-82
2021/07/22 14:10:48;;;;;;;12.73;5.43;;;21.90;66.10;;;;;;21053019;28;20514;-82
2021/07/22 14:20:49;;;;;;;7.93;4.90;;;21.90;66.00;;;;;;20977482;28;20063;-80
2021/07/22 14:30:51;;;;;;;8.00;5.38;;;22.00;65.90;;;;;;20944736;28;20072;-82
2021/07/22 14:40:51;;;;;;;8.02;5.93;;;22.00;65.60;;;;;;20960424;28;20127;-81
2021/07/22 14:50:52;;;;;;;6.13;4.72;;;22.10;65.50;;;;;;20960142;28;20067;-79
2021/07/22 15:00:53;;;;;;;8.27;5.20;;;22.10;65.30;;;;;;20960018;28;20075;-81
2021/07/22 15:10:55;;;;;;;6.10;4.63;;;22.20;65.20;;;;;;20959114;28;20119;-81
2021/07/22 15:20:56;;;;;;;9.13;5.70;;;22.20;65.00;;;;;;20970064;28;20759;-81
2021/07/22 15:30:57;;;;;;;7.45;4.95;;;22.40;64.70;;;;;;20978625;28;20037;-79
2021/07/22 15:40:58;;;;;;;8.35;5.07;;;22.50;64.60;;;;;;20976532;28;20056;-83
2021/07/22 15:50:58;;;;;;;7.63;5.18;;;22.60;64.40;;;;;;20959243;28;20028;-80
2021/07/22 16:00:59;;;;;;;8.02;4.95;;;22.70;64.20;;;;;;20988326;28;20036;-78
2021/07/22 16:11:00;;;;;;;9.13;5.03;;;22.70;63.70;;;;;;20955940;28;20036;-80
2021/07/22 16:21:01;;;;;;;6.75;5.07;;;22.80;63.60;;;;;;20995037;28;20055;-79
2021/07/22 16:31:02;;;;;;;8.30;5.18;;;22.80;63.60;;;;;;20863541;28;20087;-80
2021/07/22 16:41:04;;;;;;;7.72;4.63;;;22.90;63.50;;;;;;20883757;28;20098;-80
2021/07/22 16:51:04;;;;;;;6.60;4.72;;;23.00;63.50;;;;;;20883874;28;20513;-80
2021/07/22 17:01:08;;;;;;;6.03;4.50;;;23.00;63.50;;;;;;20883228;28;20056;-80
2021/07/22 17:11:09;;;;;;;6.50;5.15;;;23.00;63.50;;;;;;20868385;28;20504;-79
2021/07/22 17:21:10;;;;;;;5.78;4.65;;;23.00;63.50;;;;;;20883757;28;20451;-77
2021/07/22 17:31:15;;;;;;;11.18;5.05;;;23.00;63.40;;;;;;20865742;28;20036;-87
2021/07/22 17:41:16;;;;;;;;;;;23.00;63.50;;;;;;20953813;28;20055;-83
2021/07/22 17:51:20;;;;;;;5.65;4.40;;;22.90;63.50;;;;;;20985015;28;19995;-82
2021/07/22 18:01:22;;;;;;;7.00;4.87;;;22.90;63.60;;;;;;20983581;28;20063;-81
2021/07/22 18:11:23;;;;;;;6.43;4.50;;;22.80;63.70;;;;;;20967177;28;20140;-83
2021/07/22 18:21:24;;;;;;;7.15;4.38;;;22.70;63.80;;;;;;20965048;28;20173;-80
2021/07/22 18:32:03;;;;;;;7.00;4.15;;;22.70;63.90;;;;;;20968807;28;20059;-79
2021/07/22 18:42:06;;;;;;;6.20;3.95;;;22.70;64.00;;;;;;20880780;28;20045;-78
2021/07/22 18:52:08;;;;;;;5.43;3.95;;;22.60;64.10;;;;;;20864651;28;20678;-80
2021/07/22 19:02:11;;;;;;;6.07;4.25;;;22.50;64.20;;;;;;20895316;28;20053;-80
2021/07/22 19:12:12;;;;;;;5.63;4.50;;;22.50;64.30;;;;;;20877296;28;20410;-78
2021/07/22 19:22:13;;;;;;;5.22;3.90;;;22.50;64.40;;;;;;20859643;28;20136;-80
2021/07/22 19:32:13;;;;;;;8.88;4.28;;;22.40;64.40;;;;;;20872393;28;20029;-75
2021/07/22 19:42:14;;;;;;;7.53;4.10;;;22.40;64.60;;;;;;20860102;28;20041;-77
2021/07/22 19:52:14;;;;;;;5.53;3.78;;;22.40;64.70;;;;;;20861067;28;20037;-77
2021/07/22 20:02:15;;;;;;;5.72;3.90;;;22.30;64.70;;;;;;20865143;28;20390;-77
2021/07/22 20:12:17;;;;;;;6.80;4.25;;;22.30;64.80;;;;;;20928075;28;20712;-77
2021/07/22 20:22:17;;;;;;;5.20;3.65;;;22.20;64.80;;;;;;20940736;28;20072;-76
2021/07/22 20:32:18;;;;;;;4.43;3.30;;;22.20;64.90;;;;;;20965339;28;20041;-78
2021/07/22 20:42:19;;;;;;;4.18;2.95;;;22.20;65.00;;;;;;20920581;28;20044;-77
2021/07/22 20:52:20;;;;;;;4.53;3.30;;;22.20;65.00;;;;;;20956183;28;20033;-78
2021/07/22 21:02:21;;;;;;;5.43;4.20;;;22.20;65.10;;;;;;20971672;28;20123;-78
2021/07/22 21:12:23;;;;;;;6.07;3.17;;;22.10;65.10;;;;;;20970868;28;20441;-77
2021/07/22 21:22:25;;;;;;;5.35;3.90;;;22.10;65.10;;;;;;20970000;28;20161;-77
2021/07/22 21:32:27;;;;;;;4.38;3.30;;;22.10;65.10;;;;;;20985011;28;20028;-78
2021/07/22 21:42:33;;;;;;;5.17;4.03;;;22.10;65.10;;;;;;20968659;28;20440;-78
2021/07/22 21:52:39;;;;;;;9.77;4.20;;;22.10;65.10;;;;;;20966650;28;20278;-78
2021/07/22 22:02:43;;;;;;;6.05;3.92;;;22.10;65.00;;;;;;20967037;28;20421;-77
2021/07/22 22:12:45;;;;;;;4.72;3.30;;;22.10;65.00;;;;;;20982362;28;20112;-78
2021/07/22 22:22:47;;;;;;;4.60;3.35;;;22.00;64.90;;;;;;20965071;28;20131;-78
2021/07/22 22:32:49;;;;;;;6.30;3.30;;;22.00;64.80;;;;;;20964831;28;20115;-79
2021/07/22 22:42:49;;;;;;;5.13;3.10;;;22.00;64.80;;;;;;20977530;28;20048;-78
2021/07/22 22:52:50;;;;;;;3.55;3.00;;;22.00;64.70;;;;;;20963026;28;20040;-78
2021/07/22 23:02:51;;;;;;;4.50;3.65;;;22.00;64.60;;;;;;20977987;28;20565;-78
2021/07/22 23:12:52;;;;;;;4.32;3.03;;;22.00;64.60;;;;;;20978644;28;20588;-78
2021/07/22 23:22:53;;;;;;;4.78;3.72;;;22.00;64.50;;;;;;20977978;28;20052;-77
2021/07/22 23:32:54;;;;;;;4.13;3.40;;;22.00;64.50;;;;;;20977633;28;20090;-78
2021/07/22 23:42:56;;;;;;;5.00;3.45;;;21.90;64.50;;;;;;20961106;28;20049;-78
2021/07/22 23:52:58;;;;;;;4.13;3.10;;;21.90;64.50;;;;;;20984457;28;20043;-77
